Time;durP1;ratioP1;P1;durP2;ratioP2;P2;SDS_P1;SDS_P2;PMS_P1;PMS_P2;Temp;Humidity;BMP_temperature;BMP_pressure;BME280_temperature;BME280_humidity;BME280_pressure;Samples;Min_cycle;Max_cycle;Signal;HPM_P1;HPM_P2
2022/07/25 00:02:25;;;;;;;3.00;2.20;;;21.20;99.90;;;;;;5063394;28;20486;-69
2022/07/25 00:04:51;;;;;;;5.55;2.40;;;21.20;99.90;;;;;;5066375;28;20101;-70
2022/07/25 00:07:17;;;;;;;7.28;2.40;;;21.30;99.90;;;;;;5067110;28;20036;-70
2022/07/25 00:09:43;;;;;;;6.15;2.35;;;21.30;99.90;;;;;;5066707;28;20087;-69
2022/07/25 00:12:09;;;;;;;3.60;2.30;;;21.30;99.90;;;;;;5067102;28;20051;-70
2022/07/25 00:14:36;;;;;;;3.88;2.50;;;21.30;99.90;;;;;;5062446;28;20052;-70
2022/07/25 00:17:01;;;;;;;3.03;2.50;;;21.30;99.90;;;;;;5059641;28;20044;-70
2022/07/25 00:19:27;;;;;;;2.47;2.05;;;21.30;99.90;;;;;;5066680;28;20580;-69
2022/07/25 00:21:53;;;;;;;2.70;2.50;;;21.30;99.90;;;;;;5066406;28;20051;-69
2022/07/25 00:24:18;;;;;;;10.70;3.85;;;21.30;99.90;;;;;;5067064;28;20080;-70
2022/07/25 00:26:44;;;;;;;2.83;2.63;;;21.30;99.90;;;;;;5065711;28;20098;-69
2022/07/25 00:29:10;;;;;;;5.32;2.90;;;21.30;99.90;;;;;;5067518;28;20052;-69
2022/07/25 00:31:36;;;;;;;5.07;2.50;;;21.30;99.90;;;;;;5064716;28;20033;-69
2022/07/25 00:34:02;;;;;;;5.40;2.70;;;21.30;99.90;;;;;;5061417;28;20044;-69
2022/07/25 00:36:28;;;;;;;3.65;2.60;;;21.40;99.90;;;;;;5061992;28;20036;-69
2022/07/25 00:38:54;;;;;;;2.97;2.35;;;21.40;99.90;;;;;;5066100;28;20545;-69
2022/07/25 00:41:19;;;;;;;9.20;3.08;;;21.40;99.90;;;;;;5066801;28;20414;-70
2022/07/25 00:43:46;;;;;;;5.53;2.95;;;21.40;99.90;;;;;;5065918;28;20049;-69
2022/07/25 00:46:15;;;;;;;3.60;3.30;;;21.40;99.90;;;;;;5066897;28;20060;-69
2022/07/25 00:48:42;;;;;;;3.40;3.10;;;21.40;99.90;;;;;;5065792;28;20071;-69
2022/07/25 00:51:09;;;;;;;8.43;3.50;;;21.40;99.90;;;;;;5064401;28;20466;-70
2022/07/25 00:53:35;;;;;;;9.15;3.70;;;21.40;99.90;;;;;;5065648;28;20045;-70
2022/07/25 00:56:01;;;;;;;5.10;3.60;;;21.30;99.90;;;;;;5028038;28;20369;-70
2022/07/25 00:58:27;;;;;;;4.05;3.65;;;21.30;99.90;;;;;;5059985;28;20048;-70
2022/07/25 01:00:53;;;;;;;8.20;3.60;;;21.20;99.90;;;;;;5064057;28;20098;-69
2022/07/25 01:03:19;;;;;;;5.43;4.32;;;21.20;99.90;;;;;;5064753;28;20095;-69
2022/07/25 01:05:45;;;;;;;3.88;3.58;;;21.20;99.90;;;;;;5062830;28;20032;-70
2022/07/25 01:08:12;;;;;;;6.80;3.92;;;21.10;99.90;;;;;;5065088;28;20109;-69
2022/07/25 01:10:38;;;;;;;5.70;4.05;;;21.10;99.90;;;;;;5066026;28;20120;-69
2022/07/25 01:13:04;;;;;;;6.82;4.10;;;21.00;99.90;;;;;;5065216;28;20120;-69
2022/07/25 01:15:30;;;;;;;8.88;4.07;;;21.00;99.90;;;;;;5065517;28;20036;-69
2022/07/25 01:17:56;;;;;;;7.47;4.05;;;21.00;99.90;;;;;;5065505;28;20330;-70
2022/07/25 01:20:24;;;;;;;19.75;6.50;;;20.90;99.90;;;;;;5066555;28;20036;-70
2022/07/25 01:22:51;;;;;;;7.15;4.40;;;20.80;99.90;;;;;;5065006;28;20040;-70
2022/07/25 01:25:18;;;;;;;4.20;3.85;;;20.80;99.90;;;;;;5066665;28;20060;-69
2022/07/25 01:27:44;;;;;;;9.13;4.60;;;20.80;99.90;;;;;;5065726;28;20119;-69
2022/07/25 01:30:12;;;;;;;5.72;4.88;;;20.80;99.90;;;;;;5061283;28;20240;-70
2022/07/25 01:32:37;;;;;;;5.15;4.63;;;20.80;99.90;;;;;;5061636;28;20068;-69
2022/07/25 01:35:05;;;;;;;5.40;4.50;;;20.80;99.90;;;;;;5065171;28;20091;-69
2022/07/25 01:37:31;;;;;;;9.60;4.95;;;20.80;99.90;;;;;;5066009;28;20526;-69
2022/07/25 01:39:57;;;;;;;5.97;5.18;;;20.80;99.90;;;;;;5064378;28;20045;-69
2022/07/25 01:42:22;;;;;;;5.40;4.90;;;20.80;99.90;;;;;;5066544;28;20092;-70
2022/07/25 01:44:48;;;;;;;6.25;5.00;;;20.70;99.90;;;;;;5047151;28;20488;-69
2022/07/25 01:47:15;;;;;;;10.27;5.32;;;20.70;99.90;;;;;;5065716;28;20098;-69
2022/07/25 01:49:42;;;;;;;5.35;4.85;;;20.60;99.90;;;;;;5065699;28;20480;-69
2022/07/25 01:52:08;;;;;;;13.45;5.80;;;20.50;99.90;;;;;;5065631;28;20055;-69
2022/07/25 01:54:33;;;;;;;10.30;5.28;;;20.50;99.90;;;;;;5065716;28;20400;-69
2022/07/25 01:56:59;;;;;;;6.72;5.47;;;20.40;99.90;;;;;;5064141;28;20067;-69
2022/07/25 01:59:25;;;;;;;6.47;5.03;;;20.40;99.90;;;;;;5065764;28;20048;-69
2022/07/25 02:01:51;;;;;;;6.88;5.65;;;20.30;99.90;;;;;;5046677;28;20056;-69
2022/07/25 02:04:16;;;;;;;7.88;5.45;;;20.20;99.90;;;;;;5065800;28;20044;-69
2022/07/25 02:06:42;;;;;;;10.52;5.70;;;20.20;99.90;;;;;;5065180;28;20071;-69
2022/07/25 02:09:08;;;;;;;9.60;6.07;;;20.10;99.90;;;;;;5064897;28;20510;-69
2022/07/25 02:11:35;;;;;;;13.32;5.18;;;20.00;99.90;;;;;;5065185;28;20032;-69
2022/07/25 02:14:01;;;;;;;7.45;6.25;;;20.00;99.90;;;;;;5064494;28;20652;-69
2022/07/25 02:16:27;;;;;;;6.70;6.00;;;19.90;99.90;;;;;;5065607;28;20120;-69
2022/07/25 02:18:53;;;;;;;8.25;5.88;;;19.90;99.90;;;;;;5064758;28;20083;-69
2022/07/25 02:21:19;;;;;;;7.63;6.50;;;19.90;99.90;;;;;;5065827;28;20051;-69
2022/07/25 02:23:45;;;;;;;8.13;5.90;;;19.80;99.90;;;;;;5064840;28;20040;-69
2022/07/25 02:26:12;;;;;;;13.00;6.50;;;19.80;99.90;;;;;;5068086;28;20087;-69
2022/07/25 02:28:38;;;;;;;10.20;6.47;;;19.70;99.90;;;;;;5069202;28;20626;-69
2022/07/25 02:31:04;;;;;;;7.15;6.28;;;19.70;99.90;;;;;;5066305;28;20032;-69
2022/07/25 02:33:29;;;;;;;7.00;6.28;;;19.60;99.90;;;;;;5069364;28;20029;-69
2022/07/25 02:35:56;;;;;;;8.80;7.22;;;19.60;99.90;;;;;;5068259;28;20039;-68
2022/07/25 02:38:22;;;;;;;8.02;7.25;;;19.50;99.90;;;;;;5068556;28;20037;-69
2022/07/25 02:40:49;;;;;;;9.80;6.90;;;19.50;99.90;;;;;;5068522;28;20051;-69
2022/07/25 02:43:15;;;;;;;10.23;7.47;;;19.50;99.90;;;;;;5068136;28;20092;-69
2022/07/25 02:45:41;;;;;;;11.68;7.43;;;19.50;99.90;;;;;;5064266;28;20357;-69
2022/07/25 02:48:07;;;;;;;11.90;6.97;;;19.40;99.90;;;;;;5064087;28;20045;-69
2022/07/25 02:50:33;;;;;;;8.70;7.32;;;19.40;99.90;;;;;;5068713;28;20037;-69
2022/07/25 02:52:59;;;;;;;10.57;7.07;;;19.40;99.90;;;;;;5066715;28;20088;-69
2022/07/25 02:55:25;;;;;;;7.75;7.03;;;19.40;99.90;;;;;;5068441;28;20032;-69
2022/07/25 02:57:50;;;;;;;11.65;6.93;;;19.30;99.90;;;;;;5063440;28;20052;-69
2022/07/25 03:00:16;;;;;;;8.95;6.97;;;19.30;99.90;;;;;;5066154;28;20044;-69
2022/07/25 03:02:43;;;;;;;13.13;6.93;;;19.30;99.90;;;;;;5068537;28;20044;-69
2022/07/25 03:05:10;;;;;;;11.60;7.20;;;19.20;99.90;;;;;;5068190;28;20036;-69
2022/07/25 03:07:36;;;;;;;8.65;6.95;;;19.20;99.90;;;;;;5068586;28;20044;-69
2022/07/25 03:10:04;;;;;;;10.85;7.45;;;19.20;99.90;;;;;;5067671;28;20048;-69
2022/07/25 03:12:31;;;;;;;9.32;7.13;;;19.20;99.90;;;;;;5067787;28;20617;-69
2022/07/25 03:14:58;;;;;;;8.73;6.82;;;19.20;99.90;;;;;;5067233;28;20044;-69
2022/07/25 03:17:23;;;;;;;13.98;7.00;;;19.20;99.90;;;;;;5068688;28;20084;-69
2022/07/25 03:19:49;;;;;;;7.68;6.97;;;19.20;99.90;;;;;;5067811;28;20463;-69
2022/07/25 03:22:15;;;;;;;8.10;7.25;;;19.20;99.90;;;;;;5067866;28;20054;-70
2022/07/25 03:24:41;;;;;;;11.95;7.55;;;19.10;99.90;;;;;;5065772;28;20503;-69
2022/07/25 03:27:07;;;;;;;8.48;7.57;;;19.10;99.90;;;;;;5067550;28;20060;-70
2022/07/25 03:29:33;;;;;;;8.38;7.57;;;19.10;99.90;;;;;;5067919;28;20410;-68
2022/07/25 03:31:59;;;;;;;10.38;7.35;;;19.10;99.90;;;;;;5067924;28;20522;-69
2022/07/25 03:34:25;;;;;;;9.32;7.80;;;19.10;99.90;;;;;;5066396;28;20131;-70
2022/07/25 03:36:50;;;;;;;8.35;7.07;;;19.10;99.90;;;;;;5066976;28;20174;-69
2022/07/25 03:39:17;;;;;;;6.75;6.07;;;19.10;99.90;;;;;;5067254;28;20048;-69
2022/07/25 03:41:42;;;;;;;9.30;6.60;;;19.20;99.90;;;;;;5067387;28;20508;-69
2022/07/25 03:44:08;;;;;;;7.45;6.55;;;19.20;99.90;;;;;;5067271;28;20036;-69
2022/07/25 03:46:34;;;;;;;7.20;6.53;;;19.30;99.90;;;;;;5067540;28;20067;-69
2022/07/25 03:49:01;;;;;;;10.40;7.20;;;19.30;99.90;;;;;;5067406;28;20114;-69
2022/07/25 03:51:27;;;;;;;7.53;6.43;;;19.30;99.90;;;;;;5067259;28;20103;-70
2022/07/25 03:54:02;;;;;;;7.28;6.43;;;19.40;99.90;;;;;;5067312;28;20640;-69
2022/07/25 03:56:40;;;;;;;9.18;7.45;;;19.40;99.90;;;;;;5066910;28;20131;-69
2022/07/25 03:59:07;;;;;;;7.88;6.45;;;19.40;99.90;;;;;;5062546;28;20508;-70
2022/07/25 04:01:33;;;;;;;10.85;7.00;;;19.40;99.90;;;;;;5061814;28;20044;-69
2022/07/25 04:03:59;;;;;;;8.38;7.25;;;19.40;99.90;;;;;;5067171;28;20498;-69
2022/07/25 04:06:25;;;;;;;11.15;6.25;;;19.50;99.90;;;;;;5066239;28;20037;-69
2022/07/25 04:08:51;;;;;;;8.40;6.38;;;19.50;99.90;;;;;;5066082;28;20044;-69
2022/07/25 04:11:17;;;;;;;8.20;6.53;;;19.50;99.90;;;;;;5066327;28;20047;-70
2022/07/25 04:13:43;;;;;;;7.78;6.90;;;19.50;99.90;;;;;;5067753;28;20545;-69
2022/07/25 04:16:09;;;;;;;7.63;6.72;;;19.60;99.90;;;;;;5065763;28;20087;-70
2022/07/25 04:18:35;;;;;;;7.20;6.03;;;19.60;99.90;;;;;;5067193;28;20123;-69
2022/07/25 04:21:02;;;;;;;10.35;6.30;;;19.60;99.90;;;;;;5066573;28;20071;-70
2022/07/25 04:23:27;;;;;;;8.57;6.60;;;19.60;99.90;;;;;;5066699;28;20040;-69
2022/07/25 04:25:54;;;;;;;6.65;5.95;;;19.60;99.90;;;;;;5065156;28;20334;-69
2022/07/25 04:28:20;;;;;;;7.80;6.43;;;19.60;99.90;;;;;;5066336;28;20479;-70
2022/07/25 04:30:46;;;;;;;7.00;6.40;;;19.60;99.90;;;;;;5065929;28;20047;-70
2022/07/25 04:33:12;;;;;;;12.48;6.82;;;19.60;99.90;;;;;;5066193;28;20123;-69
2022/07/25 04:35:39;;;;;;;8.95;6.22;;;19.60;99.90;;;;;;5066488;28;20056;-69
2022/07/25 04:38:04;;;;;;;7.47;6.63;;;19.60;99.90;;;;;;5066320;28;20169;-70
2022/07/25 04:40:32;;;;;;;8.25;6.32;;;19.60;99.90;;;;;;5066012;28;20577;-69
2022/07/25 04:42:57;;;;;;;6.72;6.13;;;19.60;99.90;;;;;;5066473;28;20041;-69
2022/07/25 04:45:23;;;;;;;6.70;6.05;;;19.60;99.90;;;;;;5066393;28;20051;-70
2022/07/25 04:47:49;;;;;;;10.63;5.88;;;19.60;99.90;;;;;;5065961;28;20044;-70
2022/07/25 04:50:15;;;;;;;9.82;6.57;;;19.70;99.90;;;;;;5063902;28;20110;-70
2022/07/25 04:52:41;;;;;;;6.68;5.75;;;19.70;99.90;;;;;;5066741;28;20128;-70
2022/07/25 04:55:09;;;;;;;8.38;5.90;;;19.80;99.90;;;;;;5064916;28;20055;-69
2022/07/25 04:57:35;;;;;;;8.80;6.43;;;19.90;99.90;;;;;;5066068;28;20045;-69
2022/07/25 05:00:07;;;;;;;8.35;6.10;;;20.00;99.90;;;;;;5065665;28;20044;-69
2022/07/25 05:02:33;;;;;;;7.45;6.00;;;20.20;99.90;;;;;;5065951;28;20056;-69
2022/07/25 05:04:59;;;;;;;9.05;6.05;;;20.40;99.90;;;;;;5066503;28;20040;-69
2022/07/25 05:07:25;;;;;;;6.32;5.47;;;20.50;99.90;;;;;;5065232;28;20036;-69
2022/07/25 05:09:50;;;;;;;6.65;5.80;;;20.70;99.90;;;;;;5066453;28;20048;-69
2022/07/25 05:12:19;;;;;;;6.97;5.88;;;20.90;99.90;;;;;;5065471;28;20048;-70
2022/07/25 05:14:45;;;;;;;9.98;6.28;;;21.00;99.90;;;;;;5061661;28;20383;-69
2022/07/25 05:17:11;;;;;;;6.53;5.93;;;21.10;99.90;;;;;;5058373;28;20101;-69
2022/07/25 05:19:37;;;;;;;9.88;6.22;;;21.10;99.90;;;;;;5065504;28;20534;-69
2022/07/25 05:22:03;;;;;;;6.10;5.57;;;21.10;99.90;;;;;;5065972;28;20119;-70
2022/07/25 05:24:36;;;;;;;6.35;5.75;;;21.10;99.90;;;;;;5063909;28;20475;-69
2022/07/25 05:27:03;;;;;;;11.38;6.43;;;21.20;99.90;;;;;;5064988;28;20411;-69
2022/07/25 05:29:29;;;;;;;6.50;5.90;;;21.20;99.90;;;;;;5065277;28;20049;-70
2022/07/25 05:31:55;;;;;;;7.32;6.25;;;21.20;99.90;;;;;;5066185;28;20124;-69
2022/07/25 05:34:20;;;;;;;7.18;6.35;;;21.30;99.90;;;;;;5065263;28;20135;-69
2022/07/25 05:36:46;;;;;;;6.70;5.90;;;21.40;99.90;;;;;;5061239;28;20041;-69
2022/07/25 05:39:12;;;;;;;9.48;6.22;;;21.50;99.90;;;;;;5051362;28;20068;-69
2022/07/25 05:41:38;;;;;;;6.95;5.85;;;21.60;99.90;;;;;;5063968;28;20060;-70
2022/07/25 05:44:04;;;;;;;6.22;5.63;;;21.60;99.90;;;;;;5066119;28;20044;-69
2022/07/25 05:46:34;;;;;;;8.65;5.95;;;21.70;99.90;;;;;;5064835;28;20045;-70
2022/07/25 05:49:06;;;;;;;8.63;6.05;;;21.70;99.90;;;;;;5061803;28;20055;-69
2022/07/25 05:51:32;;;;;;;9.05;6.35;;;21.80;99.90;;;;;;5060706;28;20049;-69
2022/07/25 05:53:58;;;;;;;8.85;6.25;;;21.90;99.90;;;;;;5065524;28;20050;-70
2022/07/25 05:56:24;;;;;;;8.27;5.70;;;21.90;99.90;;;;;;5065291;28;20131;-70
2022/07/25 05:58:49;;;;;;;10.00;6.13;;;22.00;99.90;;;;;;5065109;28;20465;-69
2022/07/25 06:01:16;;;;;;;8.95;6.22;;;22.00;99.90;;;;;;5067442;28;20140;-69
2022/07/25 06:03:42;;;;;;;12.07;6.50;;;22.00;99.90;;;;;;5068951;28;20083;-69
2022/07/25 06:06:08;;;;;;;15.70;6.15;;;22.20;99.90;;;;;;5070060;28;20072;-69
2022/07/25 06:08:35;;;;;;;7.95;6.15;;;22.20;99.90;;;;;;5068862;28;20126;-69
2022/07/25 06:11:03;;;;;;;11.18;5.53;;;22.30;99.90;;;;;;5069329;28;20044;-69
2022/07/25 06:13:29;;;;;;;16.08;6.35;;;22.30;99.90;;;;;;5068997;28;20107;-69
2022/07/25 06:15:55;;;;;;;8.98;6.03;;;22.40;99.90;;;;;;5067721;28;20130;-69
2022/07/25 06:18:22;;;;;;;7.93;6.20;;;22.50;99.90;;;;;;5068867;28;20398;-69
2022/07/25 06:20:48;;;;;;;9.30;6.25;;;22.60;99.90;;;;;;5069014;28;20048;-69
2022/07/25 06:23:14;;;;;;;10.00;6.22;;;22.60;99.90;;;;;;5068041;28;20047;-70
2022/07/25 06:25:40;;;;;;;10.10;5.93;;;22.70;99.90;;;;;;5068700;28;20135;-70
2022/07/25 06:28:06;;;;;;;7.15;6.43;;;22.70;99.90;;;;;;5063889;28;20108;-70
2022/07/25 06:30:32;;;;;;;12.88;6.07;;;22.80;99.30;;;;;;5060661;28;20152;-69
2022/07/25 06:32:57;;;;;;;9.77;5.88;;;22.90;99.80;;;;;;5067469;28;20048;-69
2022/07/25 06:35:23;;;;;;;10.27;6.45;;;22.90;99.90;;;;;;5068986;28;20129;-69
2022/07/25 06:37:49;;;;;;;10.65;6.70;;;23.10;99.90;;;;;;5068727;28;20040;-69
2022/07/25 06:40:15;;;;;;;9.85;7.63;;;23.20;99.90;;;;;;5069168;28;20048;-70
2022/07/25 06:42:45;;;;;;;11.90;7.90;;;23.30;98.00;;;;;;5067699;28;20048;-69
2022/07/25 06:45:11;;;;;;;8.77;7.30;;;23.30;98.30;;;;;;5068488;28;20032;-69
2022/07/25 06:47:38;;;;;;;16.85;8.00;;;23.40;98.20;;;;;;5066061;28;20037;-69
2022/07/25 06:50:09;;;;;;;8.93;7.10;;;23.50;97.30;;;;;;5068545;28;20037;-69
2022/07/25 06:52:35;;;;;;;14.95;7.50;;;23.60;97.60;;;;;;5067479;28;20064;-69
2022/07/25 06:55:02;;;;;;;9.60;6.20;;;23.60;93.80;;;;;;5068196;28;20071;-69
2022/07/25 06:57:28;;;;;;;13.48;5.90;;;23.50;93.30;;;;;;5066410;28;20041;-69
2022/07/25 06:59:54;;;;;;;9.20;5.68;;;23.50;92.70;;;;;;5066363;28;20044;-69
2022/07/25 07:02:19;;;;;;;15.90;5.75;;;23.40;92.40;;;;;;5068742;28;20083;-69
2022/07/25 07:04:45;;;;;;;9.90;5.78;;;23.50;92.60;;;;;;5067946;28;20453;-69
2022/07/25 07:07:12;;;;;;;13.93;5.95;;;23.70;92.00;;;;;;5066509;28;20105;-69
2022/07/25 07:09:37;;;;;;;9.93;6.05;;;23.80;91.40;;;;;;5066132;28;20047;-69
2022/07/25 07:12:04;;;;;;;11.70;5.20;;;24.00;92.20;;;;;;5065210;28;20036;-69
2022/07/25 07:14:29;;;;;;;10.90;5.50;;;24.00;90.60;;;;;;5067494;28;20114;-69
2022/07/25 07:16:55;;;;;;;8.27;5.07;;;24.10;85.00;;;;;;5067229;28;20494;-69
2022/07/25 07:19:21;;;;;;;8.05;5.35;;;24.40;88.60;;;;;;5067841;28;20084;-69
2022/07/25 07:21:50;;;;;;;8.32;6.18;;;24.70;84.70;;;;;;5066899;28;20040;-69
2022/07/25 07:24:16;;;;;;;9.80;5.43;;;25.10;79.70;;;;;;5067927;28;20090;-68
2022/07/25 07:26:42;;;;;;;8.70;5.35;;;25.50;70.10;;;;;;5066204;28;20041;-69
2022/07/25 07:29:08;;;;;;;8.68;5.60;;;25.80;65.10;;;;;;5068264;28;20059;-70
2022/07/25 07:31:34;;;;;;;6.50;5.53;;;25.80;57.00;;;;;;5067976;28;20165;-69
2022/07/25 07:33:59;;;;;;;11.00;5.45;;;25.80;56.40;;;;;;5047545;28;20033;-69
2022/07/25 07:36:25;;;;;;;8.80;5.63;;;25.70;60.30;;;;;;5064116;28;20033;-70
2022/07/25 07:38:51;;;;;;;7.30;5.65;;;25.70;61.50;;;;;;5066640;28;20064;-69
2022/07/25 07:41:18;;;;;;;7.18;6.13;;;25.50;67.80;;;;;;5065681;28;20040;-69
2022/07/25 07:43:44;;;;;;;14.70;5.95;;;25.50;63.80;;;;;;5066794;28;20059;-71
2022/07/25 07:46:10;;;;;;;7.75;6.05;;;25.50;66.60;;;;;;5067053;28;20036;-70
2022/07/25 07:48:36;;;;;;;7.82;5.90;;;25.60;68.40;;;;;;5048078;28;20399;-69
2022/07/25 07:51:02;;;;;;;9.38;6.63;;;25.60;72.30;;;;;;5067054;28;20040;-69
2022/07/25 07:56:13;;;;;;;10.27;6.90;;;25.30;66.00;;;;;;5066496;28;20550;-69
2022/07/25 07:58:39;;;;;;;10.43;6.70;;;25.10;69.20;;;;;;5064754;28;20070;-69
2022/07/25 08:01:05;;;;;;;13.18;6.13;;;24.90;73.20;;;;;;5057724;28;20090;-68
2022/07/25 08:03:31;;;;;;;7.22;6.38;;;24.90;76.70;;;;;;5066676;28;20284;-69
2022/07/25 08:05:57;;;;;;;10.07;6.78;;;24.90;82.50;;;;;;5065770;28;20036;-69
2022/07/25 08:08:24;;;;;;;9.00;5.97;;;25.00;85.30;;;;;;5065760;28;20062;-69
2022/07/25 08:10:50;;;;;;;8.43;5.53;;;25.10;72.80;;;;;;5066643;28;20049;-69
2022/07/25 08:13:24;;;;;;;7.57;6.00;;;25.30;76.70;;;;;;5067043;28;20043;-69
2022/07/25 08:15:54;;;;;;;10.85;6.20;;;25.40;78.10;;;;;;5066851;28;20693;-69
2022/07/25 08:18:20;;;;;;;7.05;6.35;;;25.50;70.50;;;;;;5062422;28;20045;-70
2022/07/25 08:20:47;;;;;;;9.73;6.30;;;25.70;66.10;;;;;;5059331;28;20056;-70
2022/07/25 08:23:13;;;;;;;13.98;6.65;;;25.80;70.40;;;;;;5066307;28;20124;-69
2022/07/25 08:25:40;;;;;;;11.25;6.60;;;25.80;63.10;;;;;;5066409;28;21217;-69
2022/07/25 08:28:06;;;;;;;9.52;6.70;;;25.90;65.40;;;;;;5065732;28;20041;-69
2022/07/25 08:30:33;;;;;;;12.48;6.45;;;25.90;71.20;;;;;;5065192;28;20041;-69
2022/07/25 08:33:02;;;;;;;8.25;5.57;;;25.80;67.40;;;;;;5066428;28;20601;-68
2022/07/25 08:35:29;;;;;;;11.93;5.65;;;25.70;71.50;;;;;;5064454;28;20051;-69
2022/07/25 08:37:55;;;;;;;11.75;5.30;;;25.50;73.10;;;;;;5065221;28;20044;-68
2022/07/25 08:40:23;;;;;;;8.20;5.72;;;25.40;75.90;;;;;;5048210;28;20056;-70
2022/07/25 08:42:50;;;;;;;12.60;5.82;;;25.20;72.50;;;;;;5065902;28;20230;-69
2022/07/25 08:45:18;;;;;;;6.40;5.75;;;25.00;76.10;;;;;;5066146;28;20102;-68
2022/07/25 08:47:46;;;;;;;7.72;5.50;;;24.80;79.20;;;;;;5065349;28;20047;-69
2022/07/25 08:50:14;;;;;;;8.13;5.53;;;24.60;84.60;;;;;;5063692;28;20132;-69
2022/07/25 08:52:42;;;;;;;7.13;5.75;;;24.50;80.30;;;;;;5063837;28;20053;-69
2022/07/25 08:55:13;;;;;;;9.02;5.07;;;24.50;84.40;;;;;;5064895;28;20040;-70
2022/07/25 08:57:42;;;;;;;10.68;5.53;;;24.60;89.90;;;;;;5064420;28;20461;-68
2022/07/25 09:00:11;;;;;;;5.15;4.65;;;24.70;84.00;;;;;;5064577;28;20375;-69
2022/07/25 09:02:37;;;;;;;5.07;4.40;;;25.20;83.90;;;;;;5063703;28;20048;-68
2022/07/25 09:05:03;;;;;;;10.40;4.65;;;25.50;67.70;;;;;;5063208;28;20086;-69
2022/07/25 09:07:34;;;;;;;8.35;4.00;;;25.40;76.20;;;;;;5066530;28;20040;-69
2022/07/25 09:10:21;;;;;;;4.93;4.10;;;25.20;59.10;;;;;;5065838;28;20059;-69
2022/07/25 09:12:54;;;;;;;6.20;3.55;;;25.00;67.80;;;;;;5064576;28;20045;-70
2022/07/25 09:15:39;;;;;;;4.32;3.58;;;24.90;68.30;;;;;;5058331;28;20122;-69
2022/07/25 09:18:08;;;;;;;8.20;2.90;;;24.70;65.20;;;;;;5047753;28;20048;-69
2022/07/25 09:20:37;;;;;;;;;;;24.40;69.00;;;;;;5064742;28;20056;-69
2022/07/25 09:23:02;;;;;;;5.97;3.13;;;24.30;66.30;;;;;;5063980;28;19920;-69
2022/07/25 09:25:28;;;;;;;3.55;3.13;;;24.20;73.60;;;;;;5065292;28;20139;-69
2022/07/25 09:28:07;;;;;;;3.92;2.90;;;24.20;81.90;;;;;;5061515;28;20041;-69
2022/07/25 09:30:34;;;;;;;5.00;2.97;;;24.10;78.40;;;;;;5065437;28;20051;-68
2022/07/25 09:33:02;;;;;;;3.28;2.97;;;24.10;81.30;;;;;;5062680;28;20052;-69
2022/07/25 09:35:33;;;;;;;6.05;2.92;;;24.10;73.80;;;;;;5064949;28;20072;-68
2022/07/25 09:38:10;;;;;;;6.80;3.63;;;24.00;74.80;;;;;;5061666;28;20049;-69
2022/07/25 09:40:36;;;;;;;4.70;3.42;;;24.00;84.90;;;;;;5064949;28;20060;-69
2022/07/25 09:43:02;;;;;;;7.40;3.33;;;23.90;84.60;;;;;;5066310;28;20040;-69
2022/07/25 09:45:28;;;;;;;4.88;3.55;;;23.90;84.30;;;;;;5066475;28;20094;-69
2022/07/25 09:47:57;;;;;;;8.75;3.50;;;24.00;85.80;;;;;;5064511;28;20036;-69
2022/07/25 09:50:24;;;;;;;8.98;3.25;;;24.00;90.10;;;;;;5065485;28;20037;-68
2022/07/25 09:52:53;;;;;;;5.03;3.78;;;24.00;93.40;;;;;;5063172;28;20044;-69
2022/07/25 09:55:19;;;;;;;4.25;3.85;;;23.90;85.60;;;;;;5065757;28;20040;-69
2022/07/25 09:57:46;;;;;;;5.30;3.70;;;23.90;86.00;;;;;;5063711;28;20071;-68
2022/07/25 10:00:13;;;;;;;5.32;3.95;;;23.90;91.00;;;;;;5062766;28;20048;-68
2022/07/25 10:02:54;;;;;;;5.70;4.07;;;24.00;93.20;;;;;;5063883;28;20620;-68
2022/07/25 10:05:22;;;;;;;8.52;3.65;;;24.00;87.40;;;;;;5062843;28;20044;-69
2022/07/25 10:07:51;;;;;;;5.47;4.20;;;24.10;91.20;;;;;;5065015;28;20133;-69
2022/07/25 10:10:25;;;;;;;10.90;4.68;;;24.30;84.90;;;;;;5065331;28;20283;-70
2022/07/25 10:13:09;;;;;;;5.00;3.80;;;24.40;88.60;;;;;;5063827;28;20102;-69
2022/07/25 10:15:46;;;;;;;4.03;3.55;;;24.70;93.70;;;;;;5064493;28;20178;-69
2022/07/25 10:18:14;;;;;;;4.30;3.83;;;24.90;85.80;;;;;;5059324;28;20052;-68
2022/07/25 10:20:40;;;;;;;6.43;3.60;;;24.90;76.60;;;;;;5061988;28;20413;-70
2022/07/25 10:23:23;;;;;;;6.35;4.10;;;24.90;85.10;;;;;;5061253;28;20052;-68
2022/07/25 10:26:12;;;;;;;4.90;4.10;;;24.90;89.30;;;;;;5062942;28;20456;-69
2022/07/25 10:28:40;;;;;;;;;;;25.00;95.80;;;;;;5064824;28;20117;-69
2022/07/25 10:31:44;;;;;;;4.90;2.90;;;24.90;84.60;;;;;;5063706;28;20011;-69
2022/07/25 10:34:14;;;;;;;4.53;3.38;;;25.00;80.50;;;;;;5002740;28;20086;-69
2022/07/25 10:36:54;;;;;;;6.60;3.17;;;25.00;75.50;;;;;;5001794;28;20054;-68
2022/07/25 10:39:21;;;;;;;9.07;2.50;;;25.00;82.50;;;;;;5012741;28;20049;-69
2022/07/25 10:42:14;;;;;;;2.75;1.85;;;25.00;82.50;;;;;;5063330;28;20129;-69
2022/07/25 10:44:47;;;;;;;1.98;1.77;;;25.20;63.90;;;;;;5061792;28;20056;-68
2022/07/25 10:47:15;;;;;;;2.70;1.70;;;25.40;58.80;;;;;;5065935;28;20032;-69
2022/07/25 10:49:47;;;;;;;2.20;1.57;;;25.60;63.40;;;;;;5064024;28;20048;-69
2022/07/25 10:52:17;;;;;;;2.08;1.25;;;25.80;57.50;;;;;;5063370;28;20044;-70
2022/07/25 10:54:53;;;;;;;1.55;1.02;;;26.00;53.10;;;;;;5063589;28;20044;-69
2022/07/25 10:57:19;;;;;;;7.13;1.40;;;26.10;25.00;;;;;;5065182;28;20076;-70
2022/07/25 10:59:45;;;;;;;2.63;1.25;;;26.00;33.80;;;;;;5066647;28;20123;-69
2022/07/25 11:02:15;;;;;;;1.73;1.10;;;25.80;34.10;;;;;;5062167;28;20098;-69
2022/07/25 11:05:01;;;;;;;2.38;1.15;;;25.50;30.00;;;;;;5063736;28;20117;-69
2022/07/25 11:07:27;;;;;;;8.52;1.58;;;25.00;54.10;;;;;;5064467;28;20661;-69
2022/07/25 11:10:01;;;;;;;1.55;1.10;;;24.50;51.00;;;;;;5025178;28;20041;-69
2022/07/25 11:12:27;;;;;;;1.63;1.08;;;24.10;58.00;;;;;;5065162;28;20048;-68
2022/07/25 11:15:01;;;;;;;1.15;1.02;;;23.90;63.50;;;;;;5064708;28;20037;-69
2022/07/25 11:17:28;;;;;;;1.42;1.10;;;23.80;66.20;;;;;;5062825;28;20119;-69
2022/07/25 11:20:06;;;;;;;3.00;0.80;;;23.60;68.60;;;;;;5044168;28;20045;-68
2022/07/25 11:22:34;;;;;;;1.83;1.00;;;23.40;72.60;;;;;;5065561;28;20056;-69
2022/07/25 11:25:00;;;;;;;2.67;1.20;;;23.30;83.60;;;;;;5065616;28;20045;-68
2022/07/25 11:27:35;;;;;;;2.67;1.08;;;23.10;88.40;;;;;;5065650;28;20462;-69
2022/07/25 11:30:15;;;;;;;1.25;0.80;;;22.90;93.50;;;;;;5048608;28;20063;-69
2022/07/25 11:32:43;;;;;;;1.95;1.00;;;22.80;94.50;;;;;;5066849;28;20049;-70
2022/07/25 11:35:10;;;;;;;1.77;1.13;;;22.60;99.20;;;;;;5066362;28;20732;-69
2022/07/25 11:37:38;;;;;;;2.58;1.15;;;22.60;99.90;;;;;;5060910;28;20127;-68
2022/07/25 11:40:05;;;;;;;3.03;1.20;;;22.70;99.90;;;;;;5048360;28;20848;-69
2022/07/25 11:42:46;;;;;;;1.00;0.98;;;22.90;99.90;;;;;;5045597;28;20060;-69
2022/07/25 11:45:20;;;;;;;3.13;1.25;;;23.00;99.90;;;;;;5046407;28;20041;-69
2022/07/25 11:47:49;;;;;;;3.53;1.25;;;23.20;99.90;;;;;;5011678;28;20080;-69
2022/07/25 11:50:15;;;;;;;5.13;1.40;;;23.30;99.40;;;;;;5046621;28;20103;-69
2022/07/25 11:52:42;;;;;;;1.30;1.20;;;23.20;99.90;;;;;;5028007;28;20083;-69
2022/07/25 11:55:16;;;;;;;1.40;1.30;;;23.00;99.90;;;;;;5027820;28;20056;-70
2022/07/25 11:57:45;;;;;;;1.30;1.30;;;22.90;99.90;;;;;;5043864;28;20110;-69
2022/07/25 12:00:19;;;;;;;;;;;22.80;99.90;;;;;;5027861;28;20037;-69
2022/07/25 12:02:49;;;;;;;1.45;1.30;;;22.80;99.90;;;;;;5046027;28;19924;-70
2022/07/25 12:05:22;;;;;;;6.18;1.52;;;22.90;99.90;;;;;;5045136;28;20478;-69
2022/07/25 12:07:50;;;;;;;3.00;1.30;;;23.10;99.90;;;;;;5043732;28;20102;-68
2022/07/25 12:10:36;;;;;;;2.55;1.48;;;23.30;99.90;;;;;;5044819;28;20052;-69
2022/07/25 12:13:05;;;;;;;2.05;1.15;;;23.40;99.90;;;;;;5044255;28;20087;-68
2022/07/25 12:15:39;;;;;;;3.03;1.40;;;23.60;99.90;;;;;;5027819;28;20442;-69
2022/07/25 12:18:11;;;;;;;4.28;1.30;;;23.60;98.20;;;;;;5045568;28;20076;-69
2022/07/25 12:20:41;;;;;;;4.03;1.65;;;23.60;97.40;;;;;;5045738;28;20045;-69
2022/07/25 12:23:09;;;;;;;3.22;1.50;;;23.60;98.60;;;;;;5045919;28;20056;-68
2022/07/25 12:25:38;;;;;;;2.95;1.60;;;23.50;99.90;;;;;;5022948;28;20045;-69
2022/07/25 12:28:04;;;;;;;3.17;1.30;;;23.50;99.90;;;;;;5041111;28;20563;-68
2022/07/25 12:30:31;;;;;;;5.30;1.60;;;23.50;99.90;;;;;;5026287;28;20071;-70
2022/07/25 12:32:57;;;;;;;7.03;1.45;;;23.70;99.00;;;;;;5042902;28;20132;-70
2022/07/25 12:35:24;;;;;;;5.00;1.13;;;23.70;94.80;;;;;;5045705;28;20103;-70
2022/07/25 12:37:51;;;;;;;3.88;2.05;;;23.60;95.80;;;;;;5044794;28;20041;-69
2022/07/25 12:40:17;;;;;;;3.50;1.65;;;23.40;96.10;;;;;;5059452;28;20056;-69
2022/07/25 12:42:44;;;;;;;6.20;2.13;;;23.20;99.90;;;;;;5064459;28;20136;-69
2022/07/25 12:45:11;;;;;;;7.68;2.42;;;22.80;99.90;;;;;;5065507;28;20044;-70
2022/07/25 12:47:37;;;;;;;7.93;2.08;;;22.50;99.90;;;;;;5064716;28;20076;-69
2022/07/25 12:50:05;;;;;;;10.45;2.60;;;22.30;99.90;;;;;;5056294;28;20036;-69
2022/07/25 12:52:31;;;;;;;8.15;1.80;;;22.30;99.90;;;;;;5066413;28;20036;-69